Time;durP1;ratioP1;P1;durP2;ratioP2;P2;SDS_P1;SDS_P2;PMS_P1;PMS_P2;Temp;Humidity;BMP_temperature;BMP_pressure;BME280_temperature;BME280_humidity;BME280_pressure;Samples;Min_cycle;Max_cycle;Signal;HPM_P1;HPM_P2
2021/04/24 00:00:57;;;;;;;6.65;4.00;;;6.70;69.20;;;;;;2071105;28;20071;-85
2021/04/24 00:01:58;;;;;;;6.22;3.58;;;6.70;69.20;;;;;;2068015;28;20040;-86
2021/04/24 00:02:59;;;;;;;7.10;3.60;;;6.70;69.20;;;;;;2075557;28;20037;-84
2021/04/24 00:04:01;;;;;;;6.55;3.83;;;6.70;69.60;;;;;;2080125;28;20029;-85
2021/04/24 00:05:01;;;;;;;6.18;3.40;;;6.70;69.20;;;;;;2088272;28;20021;-85
2021/04/24 00:06:02;;;;;;;6.15;3.67;;;6.70;69.30;;;;;;2087983;28;20491;-85
2021/04/24 00:07:03;;;;;;;5.63;3.63;;;6.60;69.30;;;;;;2081809;28;20471;-86
2021/04/24 00:08:06;;;;;;;5.78;3.20;;;6.60;69.30;;;;;;2073464;28;20049;-86
2021/04/24 00:09:07;;;;;;;6.00;3.50;;;6.60;69.40;;;;;;2082217;28;20065;-86
2021/04/24 00:10:08;;;;;;;6.25;3.40;;;6.60;69.40;;;;;;2088631;28;20040;-86
2021/04/24 00:11:09;;;;;;;5.68;3.50;;;6.70;69.50;;;;;;2089709;28;20025;-87
2021/04/24 00:12:10;;;;;;;5.82;3.40;;;6.60;69.50;;;;;;2076465;28;20033;-85
2021/04/24 00:13:12;;;;;;;5.72;3.42;;;6.60;69.50;;;;;;2078548;28;20154;-86
2021/04/24 00:14:12;;;;;;;6.93;3.45;;;6.60;69.50;;;;;;2072260;28;20076;-85
2021/04/24 00:15:15;;;;;;;8.80;3.75;;;6.60;69.60;;;;;;2071015;28;20540;-86
2021/04/24 00:16:16;;;;;;;5.55;3.40;;;6.60;69.60;;;;;;2077713;28;20030;-85
2021/04/24 00:17:18;;;;;;;6.60;3.33;;;6.60;69.60;;;;;;2089050;28;20044;-86
2021/04/24 00:18:19;;;;;;;5.68;3.58;;;6.60;69.60;;;;;;2073505;28;20041;-86
2021/04/24 00:19:20;;;;;;;5.70;3.42;;;6.60;69.60;;;;;;2070423;28;20041;-86
2021/04/24 00:20:22;;;;;;;7.95;3.70;;;6.60;69.60;;;;;;2082031;28;20072;-86
2021/04/24 00:21:23;;;;;;;5.60;3.10;;;6.60;69.60;;;;;;2088528;28;20029;-86
2021/04/24 00:22:23;;;;;;;6.18;3.13;;;6.60;69.70;;;;;;2078551;28;20651;-86
2021/04/24 00:23:24;;;;;;;6.57;3.38;;;6.60;69.70;;;;;;2078682;28;20030;-87
2021/04/24 00:24:25;;;;;;;6.35;3.35;;;6.60;69.70;;;;;;2078120;28;20476;-86
2021/04/24 00:25:26;;;;;;;7.32;3.22;;;6.60;69.70;;;;;;2063252;28;20026;-87
2021/04/24 00:26:26;;;;;;;6.03;3.35;;;6.60;69.70;;;;;;2067481;28;20108;-87
2021/04/24 00:27:27;;;;;;;6.18;3.53;;;6.60;69.70;;;;;;2072870;28;20471;-87
2021/04/24 00:28:28;;;;;;;6.25;3.30;;;6.60;70.40;;;;;;2079297;28;20100;-86
2021/04/24 00:29:29;;;;;;;5.20;3.35;;;6.60;69.80;;;;;;2084792;28;20028;-86
2021/04/24 00:30:29;;;;;;;6.68;3.67;;;6.60;70.40;;;;;;2066912;28;20160;-86
2021/04/24 00:31:30;;;;;;;5.72;3.70;;;6.60;69.90;;;;;;2056432;28;20035;-87
2021/04/24 00:32:31;;;;;;;7.05;3.50;;;6.60;69.90;;;;;;2063105;28;20133;-87
2021/04/24 00:33:31;;;;;;;6.55;3.60;;;6.60;69.90;;;;;;2064966;28;20026;-87
2021/04/24 00:34:32;;;;;;;6.40;4.05;;;6.60;69.90;;;;;;2066234;28;20074;-86
2021/04/24 00:35:33;;;;;;;6.13;3.70;;;6.60;69.90;;;;;;2090300;28;20569;-87
2021/04/24 00:36:34;;;;;;;6.50;3.65;;;6.60;70.00;;;;;;2081628;28;20522;-87
2021/04/24 00:37:35;;;;;;;5.22;3.38;;;6.60;70.00;;;;;;2072508;28;20033;-86
2021/04/24 00:38:36;;;;;;;6.43;3.20;;;6.60;70.00;;;;;;2080070;28;20060;-86
2021/04/24 00:39:36;;;;;;;5.80;3.35;;;6.60;70.00;;;;;;2078515;28;20052;-86
2021/04/24 00:40:37;;;;;;;5.70;3.63;;;6.60;70.00;;;;;;2086669;28;20104;-87
2021/04/24 00:41:37;;;;;;;7.15;3.63;;;6.60;70.10;;;;;;2072842;28;20030;-86
2021/04/24 00:42:39;;;;;;;5.97;3.30;;;6.60;70.10;;;;;;2073133;28;20050;-87
2021/04/24 00:43:40;;;;;;;6.18;3.72;;;6.50;70.10;;;;;;2085953;28;20021;-87
2021/04/24 00:44:45;;;;;;;7.03;3.78;;;6.50;70.10;;;;;;2085275;28;20143;-87
2021/04/24 00:45:46;;;;;;;6.53;3.60;;;6.50;70.20;;;;;;2085969;28;20387;-87
2021/04/24 00:46:47;;;;;;;5.55;3.20;;;6.50;70.80;;;;;;2084921;28;20112;-86
2021/04/24 00:47:48;;;;;;;6.43;3.50;;;6.50;70.20;;;;;;2083417;28;20053;-86
2021/04/24 00:48:49;;;;;;;5.40;3.40;;;6.50;70.20;;;;;;2079469;28;20523;-86
2021/04/24 00:49:50;;;;;;;7.93;3.80;;;6.50;70.30;;;;;;2072756;28;20026;-87
2021/04/24 00:50:51;;;;;;;5.60;3.25;;;6.50;70.30;;;;;;2061835;28;20109;-86
2021/04/24 00:51:52;;;;;;;6.63;3.50;;;6.50;70.30;;;;;;2059256;28;20097;-87
2021/04/24 00:52:53;;;;;;;6.38;3.80;;;6.50;70.40;;;;;;2080520;28;20529;-87
2021/04/24 00:53:53;;;;;;;5.75;3.42;;;6.50;70.40;;;;;;2093739;28;20487;-86
2021/04/24 00:54:54;;;;;;;6.82;3.60;;;6.50;70.40;;;;;;2069835;28;20093;-85
2021/04/24 00:55:54;;;;;;;5.90;3.47;;;6.50;70.50;;;;;;2064291;28;20031;-85
2021/04/24 00:56:55;;;;;;;5.50;3.33;;;6.50;70.50;;;;;;2071766;28;20056;-85
2021/04/24 00:57:58;;;;;;;9.05;4.13;;;6.50;70.60;;;;;;2070418;28;20464;-85
2021/04/24 00:58:59;;;;;;;6.57;3.60;;;6.40;70.60;;;;;;2070211;28;20156;-85
2021/04/24 01:00:00;;;;;;;6.28;3.40;;;6.40;70.60;;;;;;2079067;28;20030;-86
2021/04/24 01:01:02;;;;;;;6.50;3.50;;;6.40;70.70;;;;;;2079000;28;20053;-86
2021/04/24 01:02:04;;;;;;;7.38;3.72;;;6.40;70.80;;;;;;2083216;28;20029;-86
2021/04/24 01:03:04;;;;;;;6.40;3.40;;;6.40;70.80;;;;;;2077333;28;20045;-86
2021/04/24 01:04:05;;;;;;;6.30;3.22;;;6.40;70.80;;;;;;2077536;28;20056;-87
2021/04/24 01:05:13;;;;;;;6.45;3.72;;;6.40;71.40;;;;;;2079810;28;20043;-86
2021/04/24 01:06:13;;;;;;;8.65;4.10;;;6.30;70.80;;;;;;2086144;28;20029;-86
2021/04/24 01:07:14;;;;;;;6.38;3.58;;;6.30;70.90;;;;;;2085570;28;20034;-86
2021/04/24 01:08:15;;;;;;;6.22;3.58;;;6.30;70.90;;;;;;2086900;28;20059;-86
2021/04/24 01:09:16;;;;;;;7.22;3.92;;;6.30;70.90;;;;;;2062095;28;20432;-86
2021/04/24 01:10:17;;;;;;;7.15;3.55;;;6.30;71.00;;;;;;2078916;28;20038;-86
2021/04/24 01:11:18;;;;;;;7.15;3.53;;;6.30;71.00;;;;;;2091994;28;20032;-86
2021/04/24 01:12:19;;;;;;;7.53;3.53;;;6.30;71.70;;;;;;2076440;28;20096;-85
2021/04/24 01:13:19;;;;;;;6.35;3.58;;;6.30;71.20;;;;;;2076152;28;20041;-86
2021/04/24 01:14:20;;;;;;;6.47;3.63;;;6.30;71.20;;;;;;2072648;28;20117;-85
2021/04/24 01:15:21;;;;;;;5.90;3.50;;;6.30;71.20;;;;;;2058541;28;20509;-85
2021/04/24 01:16:22;;;;;;;6.10;3.67;;;6.30;71.20;;;;;;2080704;28;20057;-86
2021/04/24 01:17:22;;;;;;;6.93;3.50;;;6.30;71.20;;;;;;2087144;28;20096;-86
2021/04/24 01:18:24;;;;;;;6.85;3.97;;;6.30;71.20;;;;;;2068812;28;20072;-84
2021/04/24 01:19:26;;;;;;;6.95;3.70;;;6.30;71.20;;;;;;2069836;28;20030;-84
2021/04/24 01:20:27;;;;;;;6.50;3.47;;;6.30;71.20;;;;;;2085392;28;20025;-84
2021/04/24 01:21:28;;;;;;;6.90;3.90;;;6.30;71.30;;;;;;2084022;28;20061;-85
2021/04/24 01:22:29;;;;;;;6.15;3.70;;;6.30;71.20;;;;;;2089475;28;20048;-85
2021/04/24 01:23:30;;;;;;;5.85;3.53;;;6.30;71.30;;;;;;2072416;28;20400;-86
2021/04/24 01:24:30;;;;;;;6.18;3.50;;;6.30;71.30;;;;;;2072534;28;20042;-85
2021/04/24 01:25:31;;;;;;;6.65;3.63;;;6.30;71.30;;;;;;2072796;28;20033;-85
2021/04/24 01:26:34;;;;;;;5.78;3.42;;;6.30;71.30;;;;;;2072148;28;20484;-85
2021/04/24 01:27:35;;;;;;;7.07;3.78;;;6.30;71.40;;;;;;2081442;28;20064;-85
2021/04/24 01:28:36;;;;;;;6.50;3.70;;;6.30;71.40;;;;;;2079027;28;20790;-85
2021/04/24 01:29:38;;;;;;;6.38;3.95;;;6.30;71.40;;;;;;2079516;28;20079;-85
2021/04/24 01:30:42;;;;;;;6.35;3.63;;;6.20;71.40;;;;;;2070112;28;20034;-85
2021/04/24 01:31:42;;;;;;;8.15;3.95;;;6.20;71.40;;;;;;2063728;28;20035;-84
2021/04/24 01:32:43;;;;;;;5.70;3.45;;;6.30;71.50;;;;;;2082043;28;20499;-86
2021/04/24 01:33:44;;;;;;;6.60;4.20;;;6.20;71.50;;;;;;2094225;28;20033;-84
2021/04/24 01:34:44;;;;;;;7.15;3.72;;;6.20;71.50;;;;;;2080230;28;20026;-85
2021/04/24 01:35:45;;;;;;;6.95;4.00;;;6.20;71.50;;;;;;2055698;28;20074;-85
2021/04/24 01:36:46;;;;;;;6.50;4.20;;;6.20;71.50;;;;;;2072481;28;20033;-85
2021/04/24 01:37:47;;;;;;;6.97;3.80;;;6.20;71.60;;;;;;2072138;28;20593;-85
2021/04/24 01:38:47;;;;;;;7.50;3.72;;;6.20;71.60;;;;;;2058034;28;20038;-85
2021/04/24 01:39:48;;;;;;;6.50;3.50;;;6.20;71.70;;;;;;2055102;28;20035;-84
2021/04/24 01:40:49;;;;;;;6.63;4.30;;;6.20;71.70;;;;;;2078777;28;20040;-85
2021/04/24 01:41:50;;;;;;;6.63;3.65;;;6.20;71.70;;;;;;2077651;28;20025;-85
2021/04/24 01:42:51;;;;;;;5.95;3.78;;;6.20;71.70;;;;;;2067389;28;20061;-85
2021/04/24 01:43:54;;;;;;;6.25;3.50;;;6.20;71.70;;;;;;2079721;28;20507;-85
2021/04/24 01:44:55;;;;;;;7.68;3.58;;;6.10;71.80;;;;;;2077654;28;20021;-86
2021/04/24 01:45:55;;;;;;;6.18;3.53;;;6.10;71.80;;;;;;2087920;28;20032;-85
2021/04/24 01:46:56;;;;;;;6.97;4.05;;;6.10;71.80;;;;;;2070843;28;20526;-85
2021/04/24 01:47:57;;;;;;;6.10;3.50;;;6.10;71.80;;;;;;2050564;28;20031;-85
2021/04/24 01:48:57;;;;;;;7.10;3.70;;;6.10;71.90;;;;;;2052956;28;20023;-86
2021/04/24 01:49:58;;;;;;;5.93;3.70;;;6.10;71.90;;;;;;2067201;28;20022;-86
2021/04/24 01:50:59;;;;;;;6.25;3.67;;;6.10;72.00;;;;;;2076952;28;20037;-85
2021/04/24 01:52:00;;;;;;;7.00;3.60;;;6.10;72.00;;;;;;2061355;28;20397;-85
2021/04/24 01:53:02;;;;;;;5.72;3.47;;;6.10;72.00;;;;;;2061021;28;20034;-85
2021/04/24 01:54:03;;;;;;;8.02;3.70;;;6.10;72.10;;;;;;2085801;28;20117;-86
2021/04/24 01:55:07;;;;;;;6.78;3.65;;;6.10;72.10;;;;;;2091163;28;20124;-85
2021/04/24 01:56:11;;;;;;;7.40;3.95;;;6.10;72.10;;;;;;2085376;28;20472;-84
2021/04/24 01:57:12;;;;;;;7.28;3.80;;;6.10;72.10;;;;;;2080818;28;20052;-85
2021/04/24 01:58:17;;;;;;;7.25;3.83;;;6.10;72.10;;;;;;2080231;28;20021;-85
2021/04/24 01:59:20;;;;;;;7.22;3.75;;;6.10;72.20;;;;;;2081913;28;20080;-85
2021/04/24 02:00:31;;;;;;;7.03;3.83;;;6.00;72.10;;;;;;2086062;28;20475;-85
2021/04/24 02:01:32;;;;;;;6.22;3.50;;;6.10;72.30;;;;;;2091376;28;20037;-85
2021/04/24 02:02:32;;;;;;;6.18;3.70;;;6.00;72.20;;;;;;2091315;28;20123;-85
2021/04/24 02:03:33;;;;;;;7.45;4.28;;;6.00;72.20;;;;;;2080992;28;20056;-85
2021/04/24 02:04:34;;;;;;;7.28;3.90;;;6.00;72.30;;;;;;2069755;28;20048;-84
2021/04/24 02:05:35;;;;;;;6.85;4.22;;;6.00;72.30;;;;;;2072381;28;20026;-85
2021/04/24 02:06:35;;;;;;;7.13;3.92;;;6.00;72.40;;;;;;2049546;28;20035;-84
2021/04/24 02:07:36;;;;;;;7.40;3.60;;;6.00;72.40;;;;;;2065493;28;20065;-85
2021/04/24 02:08:41;;;;;;;7.65;4.00;;;6.00;72.40;;;;;;2063019;28;20125;-84
2021/04/24 02:09:42;;;;;;;6.10;3.72;;;6.00;72.50;;;;;;2077200;28;20025;-85
2021/04/24 02:10:46;;;;;;;6.35;3.70;;;6.00;72.50;;;;;;2086955;28;20108;-85
2021/04/24 02:12:10;;;;;;;7.50;3.50;;;6.00;72.50;;;;;;2084405;28;20074;-86
2021/04/24 02:13:14;;;;;;;7.07;4.10;;;6.00;72.50;;;;;;2079918;28;20023;-85
2021/04/24 02:14:15;;;;;;;7.03;3.88;;;5.90;72.50;;;;;;2079790;28;20029;-85
2021/04/24 02:15:15;;;;;;;7.28;3.65;;;5.90;72.50;;;;;;2080457;28;20024;-85
2021/04/24 02:16:16;;;;;;;8.68;4.70;;;5.90;72.50;;;;;;2080110;28;20123;-84
2021/04/24 02:17:25;;;;;;;7.20;4.15;;;5.90;73.20;;;;;;2078596;28;20033;-85
2021/04/24 02:18:27;;;;;;;6.05;3.50;;;5.90;72.60;;;;;;2075046;28;20084;-85
2021/04/24 02:19:28;;;;;;;8.80;4.00;;;5.90;72.70;;;;;;2073061;28;20030;-85
2021/04/24 02:20:28;;;;;;;7.70;4.18;;;5.90;72.70;;;;;;2075819;28;20030;-85
2021/04/24 02:21:29;;;;;;;8.25;4.28;;;5.90;72.70;;;;;;2073290;28;20113;-85
2021/04/24 02:22:30;;;;;;;6.90;4.00;;;5.90;72.70;;;;;;2071715;28;20125;-85
2021/04/24 02:23:37;;;;;;;6.20;3.58;;;5.90;72.80;;;;;;2082058;28;20084;-85
2021/04/24 02:24:51;;;;;;;6.80;4.00;;;5.90;72.80;;;;;;2079315;28;20033;-84
2021/04/24 02:25:52;;;;;;;6.40;4.00;;;5.90;72.90;;;;;;2080680;28;20034;-85
2021/04/24 02:26:52;;;;;;;8.13;4.15;;;5.90;72.90;;;;;;2080170;28;20400;-84
2021/04/24 02:27:53;;;;;;;5.82;3.55;;;5.90;72.90;;;;;;2085777;28;20037;-84
2021/04/24 02:28:54;;;;;;;6.40;4.00;;;5.90;72.90;;;;;;2083251;28;20021;-84
2021/04/24 02:29:55;;;;;;;6.68;3.75;;;5.90;73.00;;;;;;2074410;28;20025;-85
2021/04/24 02:30:56;;;;;;;6.85;3.95;;;5.90;73.00;;;;;;2064877;28;20069;-85
2021/04/24 02:31:56;;;;;;;6.70;3.88;;;5.90;73.10;;;;;;2072584;28;20042;-85
2021/04/24 02:32:57;;;;;;;6.35;3.55;;;5.90;73.00;;;;;;2079809;28;20559;-85
2021/04/24 02:33:58;;;;;;;7.47;3.88;;;5.90;73.10;;;;;;2078316;28;20040;-85
2021/04/24 02:34:59;;;;;;;6.05;3.63;;;5.90;73.10;;;;;;2071371;28;20221;-84
2021/04/24 02:36:00;;;;;;;6.95;3.90;;;5.90;73.80;;;;;;2072883;28;20029;-84
2021/04/24 02:37:01;;;;;;;6.85;3.80;;;5.80;73.10;;;;;;2088896;28;20103;-85
2021/04/24 02:38:02;;;;;;;6.32;4.00;;;5.80;73.10;;;;;;2092773;28;20095;-84
2021/04/24 02:39:04;;;;;;;7.90;4.32;;;5.80;73.20;;;;;;2075723;28;20524;-85
2021/04/24 02:40:07;;;;;;;6.38;3.55;;;5.80;73.30;;;;;;2076503;28;20013;-84
2021/04/24 02:41:08;;;;;;;7.28;4.22;;;5.80;73.30;;;;;;2091116;28;20539;-84
2021/04/24 02:42:16;;;;;;;7.90;3.90;;;5.80;73.40;;;;;;2083941;28;20059;-85
2021/04/24 02:43:17;;;;;;;5.93;3.58;;;5.70;73.40;;;;;;2076750;28;20087;-85
2021/04/24 02:44:18;;;;;;;5.55;3.50;;;5.70;73.40;;;;;;2083508;28;20030;-85
2021/04/24 02:45:19;;;;;;;6.00;4.00;;;5.80;73.50;;;;;;2082228;28;20037;-85
2021/04/24 02:46:19;;;;;;;6.70;3.85;;;5.80;73.50;;;;;;2087051;28;20036;-85
2021/04/24 02:47:21;;;;;;;7.07;4.10;;;5.70;73.40;;;;;;2071803;28;20121;-85
2021/04/24 02:48:22;;;;;;;6.63;4.05;;;5.80;73.50;;;;;;2070580;28;20025;-84
2021/04/24 02:49:23;;;;;;;7.72;4.15;;;5.80;73.60;;;;;;2083125;28;20060;-85
2021/04/24 02:50:23;;;;;;;6.47;3.58;;;5.80;73.50;;;;;;2078340;28;20026;-84
2021/04/24 02:51:24;;;;;;;6.93;3.70;;;5.80;73.50;;;;;;2062419;28;20026;-85
2021/04/24 02:52:25;;;;;;;7.63;4.00;;;5.80;73.60;;;;;;2071301;28;20025;-85
2021/04/24 02:53:25;;;;;;;6.38;3.50;;;5.80;73.60;;;;;;2070449;28;20085;-84
2021/04/24 02:54:26;;;;;;;8.15;4.15;;;5.80;73.60;;;;;;2065262;28;20065;-86
2021/04/24 02:55:27;;;;;;;7.03;3.90;;;5.80;73.70;;;;;;2058321;28;20041;-85
2021/04/24 02:56:27;;;;;;;7.65;3.90;;;5.70;73.60;;;;;;2076316;28;20569;-85
2021/04/24 02:57:28;;;;;;;7.95;3.92;;;5.70;73.60;;;;;;2081280;28;20041;-85
2021/04/24 02:58:29;;;;;;;8.75;4.05;;;5.80;73.70;;;;;;2089545;28;20037;-84
2021/04/24 02:59:29;;;;;;;7.30;3.88;;;5.70;73.70;;;;;;2084450;28;20022;-85
2021/04/24 03:00:30;;;;;;;7.63;4.05;;;5.70;74.30;;;;;;2079376;28;20045;-84
2021/04/24 03:01:31;;;;;;;7.47;4.15;;;5.70;73.70;;;;;;2079976;28;20026;-84
2021/04/24 03:02:32;;;;;;;7.50;3.92;;;5.80;73.80;;;;;;2077370;28;20487;-85
2021/04/24 03:03:33;;;;;;;6.78;4.25;;;5.70;73.70;;;;;;2076153;28;20026;-84
2021/04/24 03:04:33;;;;;;;6.43;3.85;;;5.70;73.80;;;;;;2083949;28;20025;-85
2021/04/24 03:05:36;;;;;;;7.53;3.80;;;5.70;73.80;;;;;;2081556;28;20006;-85
2021/04/24 03:06:37;;;;;;;9.57;4.07;;;5.70;73.80;;;;;;2083117;28;20029;-85
2021/04/24 03:07:38;;;;;;;7.07;3.85;;;5.70;73.80;;;;;;2074414;28;20030;-84
2021/04/24 03:08:39;;;;;;;7.65;3.67;;;5.70;73.80;;;;;;2081492;28;20033;-85
2021/04/24 03:09:39;;;;;;;8.50;3.95;;;5.70;73.80;;;;;;2074396;28;20061;-83
2021/04/24 03:10:41;;;;;;;6.22;3.85;;;5.70;73.90;;;;;;2073276;28;20014;-84
2021/04/24 03:11:43;;;;;;;6.47;3.70;;;5.70;73.90;;;;;;2082237;28;20033;-84
2021/04/24 03:12:43;;;;;;;7.22;4.20;;;5.70;74.00;;;;;;2076232;28;20068;-84
2021/04/24 03:13:44;;;;;;;6.78;3.88;;;5.70;73.90;;;;;;2073333;28;20056;-85
2021/04/24 03:14:45;;;;;;;7.07;4.07;;;5.80;74.00;;;;;;2079443;28;20042;-84
2021/04/24 03:15:45;;;;;;;6.85;4.07;;;5.70;74.00;;;;;;2082347;28;21169;-84
2021/04/24 03:16:46;;;;;;;7.30;3.72;;;5.70;74.00;;;;;;2082115;28;20025;-85
2021/04/24 03:17:47;;;;;;;7.97;4.03;;;5.70;74.00;;;;;;2082996;28;20010;-84
2021/04/24 03:18:48;;;;;;;8.52;4.43;;;5.70;74.10;;;;;;2098764;28;20005;-84
2021/04/24 03:19:49;;;;;;;7.00;3.42;;;5.70;74.70;;;;;;2084771;28;20025;-86
2021/04/24 03:20:50;;;;;;;6.97;3.60;;;5.70;74.10;;;;;;2071272;28;20098;-85
2021/04/24 03:21:51;;;;;;;6.82;3.72;;;5.70;74.10;;;;;;2085913;28;20025;-84
2021/04/24 03:22:51;;;;;;;7.00;4.00;;;5.70;74.10;;;;;;2078300;28;20515;-85
2021/04/24 03:23:53;;;;;;;6.53;4.15;;;5.70;74.10;;;;;;2061947;28;20704;-84
2021/04/24 03:24:53;;;;;;;7.88;3.50;;;5.70;74.20;;;;;;2064462;28;20203;-85
2021/04/24 03:25:54;;;;;;;6.68;3.75;;;5.70;74.20;;;;;;2083564;28;20036;-85
2021/04/24 03:26:55;;;;;;;7.15;4.10;;;5.70;74.30;;;;;;2069747;28;20441;-84
2021/04/24 03:27:55;;;;;;;7.47;3.85;;;5.70;74.20;;;;;;2054111;28;20136;-85
2021/04/24 03:28:56;;;;;;;6.03;3.70;;;5.70;74.20;;;;;;2071838;28;20041;-84
2021/04/24 03:29:57;;;;;;;7.93;3.97;;;5.70;74.30;;;;;;2070338;28;20503;-85
2021/04/24 03:30:57;;;;;;;5.85;3.72;;;5.70;74.30;;;;;;2062392;28;20026;-85
2021/04/24 03:31:58;;;;;;;7.13;3.78;;;5.70;74.30;;;;;;2056907;28;20496;-85
2021/04/24 03:32:58;;;;;;;6.90;3.50;;;5.70;74.30;;;;;;2072942;28;20504;-85
2021/04/24 03:34:00;;;;;;;8.20;4.05;;;5.70;74.30;;;;;;2073230;28;20034;-85
2021/04/24 03:35:01;;;;;;;6.85;3.95;;;5.70;74.30;;;;;;2074470;28;20037;-85
2021/04/24 03:36:02;;;;;;;5.85;3.50;;;5.70;74.40;;;;;;2071668;28;20033;-82
2021/04/24 03:37:03;;;;;;;6.28;3.63;;;5.70;74.50;;;;;;2087667;28;20009;-85
2021/04/24 03:38:03;;;;;;;5.82;3.47;;;5.70;74.40;;;;;;2088438;28;20113;-84
2021/04/24 03:39:04;;;;;;;5.40;3.53;;;5.70;75.10;;;;;;2082501;28;20022;-85
2021/04/24 03:40:06;;;;;;;6.72;3.78;;;5.70;74.40;;;;;;2089702;28;20013;-84
2021/04/24 03:41:08;;;;;;;7.82;3.70;;;5.70;74.50;;;;;;2091074;28;20025;-85
2021/04/24 03:42:11;;;;;;;6.15;3.42;;;5.70;75.10;;;;;;2080007;28;20136;-85
2021/04/24 03:43:11;;;;;;;5.72;3.47;;;5.70;74.50;;;;;;2078963;28;20045;-86
2021/04/24 03:44:12;;;;;;;6.90;3.55;;;5.70;74.60;;;;;;2065221;28;20520;-85
2021/04/24 03:45:20;;;;;;;6.95;4.03;;;5.70;74.60;;;;;;2068462;28;20515;-85
2021/04/24 03:46:21;;;;;;;6.90;3.67;;;5.70;74.60;;;;;;2080979;28;20118;-85
2021/04/24 03:47:21;;;;;;;7.22;3.63;;;5.70;74.60;;;;;;2084043;28;20423;-85
2021/04/24 03:48:22;;;;;;;6.95;3.53;;;5.70;74.70;;;;;;2078409;28;20096;-86
2021/04/24 03:49:22;;;;;;;6.50;3.90;;;5.60;74.70;;;;;;2085832;28;20025;-85
2021/04/24 03:50:25;;;;;;;6.28;3.90;;;5.60;74.80;;;;;;2083691;28;20029;-85
2021/04/24 03:51:26;;;;;;;7.00;3.80;;;5.60;74.80;;;;;;2084036;28;20029;-86
2021/04/24 03:52:26;;;;;;;5.55;3.63;;;5.70;74.90;;;;;;2076299;28;20032;-86
2021/04/24 03:53:27;;;;;;;7.18;3.97;;;5.60;74.80;;;;;;2056661;28;20031;-86
2021/04/24 03:54:28;;;;;;;6.32;3.75;;;5.60;74.90;;;;;;2064992;28;20155;-86
2021/04/24 03:55:28;;;;;;;8.43;4.13;;;5.60;74.90;;;;;;2077387;28;20033;-87
2021/04/24 03:56:29;;;;;;;6.68;4.03;;;5.60;75.50;;;;;;2073600;28;20217;-85
2021/04/24 03:57:30;;;;;;;6.60;4.10;;;5.60;74.90;;;;;;2068584;28;20032;-86
2021/04/24 03:58:30;;;;;;;6.75;4.00;;;5.60;75.00;;;;;;2075019;28;20030;-86
2021/04/24 03:59:31;;;;;;;6.70;3.80;;;5.60;75.00;;;;;;2071323;28;20113;-86
2021/04/24 04:00:32;;;;;;;8.27;4.05;;;5.50;74.90;;;;;;2078721;28;20476;-86
2021/04/24 04:01:34;;;;;;;6.65;3.72;;;5.50;75.00;;;;;;2083757;28;20060;-86
2021/04/24 04:03:05;;;;;;;7.85;4.22;;;5.50;75.10;;;;;;2065409;28;20042;-86
2021/04/24 04:04:05;;;;;;;7.15;3.88;;;5.50;75.10;;;;;;2067263;28;20049;-85
2021/04/24 04:05:07;;;;;;;7.57;3.95;;;5.50;75.00;;;;;;2080005;28;20018;-85
2021/04/24 04:06:07;;;;;;;6.95;3.83;;;5.50;75.00;;;;;;2062029;28;20069;-85
2021/04/24 04:07:08;;;;;;;6.45;3.60;;;5.50;75.00;;;;;;2059952;28;20508;-85
2021/04/24 04:08:10;;;;;;;7.63;4.43;;;5.50;75.10;;;;;;2076040;28;20034;-85
2021/04/24 04:09:11;;;;;;;6.30;3.78;;;5.50;75.20;;;;;;2077964;28;20034;-86
2021/04/24 04:10:16;;;;;;;6.95;4.10;;;5.50;75.10;;;;;;2069997;28;20081;-86
2021/04/24 04:11:17;;;;;;;6.82;3.92;;;5.50;75.20;;;;;;2077141;28;20025;-86
2021/04/24 04:12:17;;;;;;;6.70;3.83;;;5.50;75.20;;;;;;2075211;28;20038;-86
2021/04/24 04:13:18;;;;;;;8.68;4.63;;;5.50;75.20;;;;;;2069267;28;20057;-86
2021/04/24 04:14:19;;;;;;;6.57;3.75;;;5.50;75.30;;;;;;2076017;28;20490;-86
2021/04/24 04:15:21;;;;;;;7.25;4.00;;;5.40;75.30;;;;;;2071546;28;20519;-86
2021/04/24 04:16:23;;;;;;;7.20;3.78;;;5.40;75.30;;;;;;2069486;28;20442;-85
2021/04/24 04:17:23;;;;;;;8.35;4.60;;;5.40;75.40;;;;;;2081748;28;20072;-87
2021/04/24 04:18:24;;;;;;;8.60;3.85;;;5.40;75.50;;;;;;2080085;28;20034;-84
2021/04/24 04:19:25;;;;;;;7.30;4.30;;;5.40;75.50;;;;;;2068113;28;20036;-85
2021/04/24 04:20:25;;;;;;;7.28;3.90;;;5.40;75.60;;;;;;2053881;28;20030;-85
2021/04/24 04:21:26;;;;;;;10.52;4.40;;;5.40;75.60;;;;;;2060656;28;20165;-85
2021/04/24 04:22:27;;;;;;;8.35;4.15;;;5.40;75.60;;;;;;2066084;28;20049;-85
2021/04/24 04:23:28;;;;;;;7.55;3.95;;;5.40;75.70;;;;;;2070653;28;20512;-85
2021/04/24 04:24:28;;;;;;;7.03;4.30;;;5.30;75.70;;;;;;2087416;28;20052;-85
2021/04/24 04:25:29;;;;;;;7.30;3.60;;;5.40;75.70;;;;;;2092509;28;20029;-85
2021/04/24 04:26:30;;;;;;;7.18;4.03;;;5.40;75.70;;;;;;2082687;28;20375;-85
2021/04/24 04:27:31;;;;;;;7.70;4.30;;;5.40;75.80;;;;;;2064043;28;21083;-85
2021/04/24 04:28:31;;;;;;;7.70;4.25;;;5.30;75.80;;;;;;2074030;28;20112;-86
2021/04/24 04:29:33;;;;;;;6.55;3.83;;;5.40;75.80;;;;;;2077602;28;20025;-85
2021/04/24 04:30:36;;;;;;;6.38;3.97;;;5.40;75.90;;;;;;2087573;28;20025;-85
2021/04/24 04:31:37;;;;;;;5.97;3.45;;;5.30;75.90;;;;;;2085650;28;20021;-85
2021/04/24 04:32:38;;;;;;;6.72;3.58;;;5.30;75.90;;;;;;2068668;28;20481;-84
2021/04/24 04:33:39;;;;;;;6.78;3.50;;;5.30;76.00;;;;;;2071084;28;20531;-84
2021/04/24 04:34:40;;;;;;;6.97;3.80;;;5.30;76.00;;;;;;2070132;28;20034;-85
2021/04/24 04:35:42;;;;;;;6.68;3.58;;;5.30;76.00;;;;;;2071767;28;20034;-85
2021/04/24 04:36:42;;;;;;;6.55;3.80;;;5.30;76.00;;;;;;2080158;28;20052;-84
2021/04/24 04:37:43;;;;;;;7.25;3.58;;;5.30;76.00;;;;;;2077543;28;20415;-84
2021/04/24 04:38:44;;;;;;;7.78;4.18;;;5.30;76.00;;;;;;2087445;28;20017;-84
2021/04/24 04:39:44;;;;;;;7.13;3.50;;;5.40;76.00;;;;;;2091600;28;20081;-84
2021/04/24 04:40:46;;;;;;;6.45;3.38;;;5.30;76.00;;;;;;2067981;28;20032;-84
2021/04/24 04:41:46;;;;;;;7.45;4.15;;;5.40;76.00;;;;;;2077659;28;20080;-85
2021/04/24 04:42:47;;;;;;;8.27;4.07;;;5.40;76.10;;;;;;2088162;28;20116;-84
2021/04/24 04:43:48;;;;;;;6.55;3.70;;;5.30;76.70;;;;;;2085082;28;20030;-84
2021/04/24 04:44:48;;;;;;;6.93;3.78;;;5.40;76.20;;;;;;2085497;28;20036;-84
2021/04/24 04:45:49;;;;;;;8.90;4.05;;;5.40;76.20;;;;;;2086858;28;20140;-85
2021/04/24 04:46:50;;;;;;;6.95;3.88;;;5.30;76.10;;;;;;2085209;28;20033;-85
2021/04/24 04:47:51;;;;;;;7.38;3.92;;;5.40;76.20;;;;;;2091359;28;20512;-84
2021/04/24 04:48:53;;;;;;;6.55;3.75;;;5.40;76.20;;;;;;2092065;28;20021;-84
2021/04/24 04:49:54;;;;;;;6.40;3.63;;;5.40;76.20;;;;;;2085567;28;20013;-85
2021/04/24 04:50:54;;;;;;;6.57;3.50;;;5.40;76.30;;;;;;2064663;28;20092;-84
2021/04/24 04:51:55;;;;;;;6.85;3.80;;;5.40;76.20;;;;;;2072189;28;20077;-84
2021/04/24 04:52:57;;;;;;;6.82;3.67;;;5.40;76.30;;;;;;2070688;28;20037;-84
2021/04/24 04:53:57;;;;;;;7.05;3.85;;;5.40;76.30;;;;;;2073415;28;20018;-85
2021/04/24 04:54:58;;;;;;;7.35;3.80;;;5.40;76.40;;;;;;2090697;28;20048;-84
2021/04/24 04:55:58;;;;;;;8.55;3.90;;;5.40;76.40;;;;;;2087101;28;20483;-85
2021/04/24 04:56:59;;;;;;;6.82;3.53;;;5.50;76.50;;;;;;2076039;28;20069;-84
2021/04/24 04:58:00;;;;;;;7.35;3.70;;;5.50;76.40;;;;;;2078118;28;20112;-85
2021/04/24 04:59:01;;;;;;;6.40;3.60;;;5.50;76.40;;;;;;2068448;28;20519;-84
2021/04/24 05:00:07;;;;;;;6.00;3.60;;;5.50;76.40;;;;;;2079221;28;20048;-83
2021/04/24 05:01:07;;;;;;;8.10;4.05;;;5.50;76.40;;;;;;2082838;28;20025;-85
2021/04/24 05:02:08;;;;;;;6.70;3.38;;;5.50;76.40;;;;;;2079628;28;20058;-85
2021/04/24 05:03:09;;;;;;;7.50;3.40;;;5.50;77.00;;;;;;2077781;28;20041;-84
2021/04/24 05:04:09;;;;;;;6.03;3.45;;;5.50;76.40;;;;;;2070405;28;20025;-84
2021/04/24 05:05:12;;;;;;;6.65;3.50;;;5.50;76.60;;;;;;2068705;28;20034;-84
2021/04/24 05:06:13;;;;;;;6.35;3.60;;;5.60;77.00;;;;;;2078159;28;20038;-84
2021/04/24 05:07:14;;;;;;;6.35;3.40;;;5.60;76.30;;;;;;2069280;28;20042;-84
2021/04/24 05:08:15;;;;;;;7.60;3.45;;;5.60;76.30;;;;;;2054404;28;20094;-84
2021/04/24 05:09:18;;;;;;;6.45;3.50;;;5.70;76.30;;;;;;2061631;28;20035;-84
2021/04/24 05:10:21;;;;;;;5.40;3.35;;;5.60;76.30;;;;;;2071222;28;20030;-84
2021/04/24 05:11:22;;;;;;;7.07;3.38;;;5.70;76.30;;;;;;2076323;28;20037;-84
2021/04/24 05:12:23;;;;;;;8.23;3.83;;;5.70;76.30;;;;;;2081754;28;20048;-84
2021/04/24 05:13:23;;;;;;;6.60;3.25;;;5.70;76.30;;;;;;2084545;28;20013;-84
2021/04/24 05:14:24;;;;;;;5.85;3.25;;;5.70;76.20;;;;;;2072697;28;20061;-84
2021/04/24 05:15:25;;;;;;;6.57;3.40;;;5.70;76.20;;;;;;2068402;28;20031;-84
2021/04/24 05:16:25;;;;;;;6.55;3.30;;;5.80;76.30;;;;;;2067248;28;20026;-84
2021/04/24 05:17:26;;;;;;;4.68;2.78;;;5.80;76.30;;;;;;2086029;28;20407;-84
2021/04/24 05:18:27;;;;;;;5.90;3.17;;;5.80;76.30;;;;;;2085377;28;20100;-84
2021/04/24 05:19:27;;;;;;;5.10;3.00;;;5.80;76.20;;;;;;2088288;28;20502;-84
2021/04/24 05:20:28;;;;;;;6.35;3.13;;;5.90;76.30;;;;;;2071003;28;20076;-84
2021/04/24 05:21:28;;;;;;;6.05;3.17;;;5.90;76.20;;;;;;2080065;28;20061;-84
2021/04/24 05:22:29;;;;;;;5.40;3.08;;;5.80;76.10;;;;;;2060967;28;20038;-84
2021/04/24 05:23:30;;;;;;;5.20;2.78;;;5.90;76.10;;;;;;2069668;28;20112;-84
2021/04/24 05:24:31;;;;;;;7.03;3.00;;;5.90;76.10;;;;;;2063350;28;20043;-84